Time;durP1;ratioP1;P1;durP2;ratioP2;P2;SDS_P1;SDS_P2;PMS_P1;PMS_P2;Temp;Humidity;BMP_temperature;BMP_pressure;BME280_temperature;BME280_humidity;BME280_pressure;Samples;Min_cycle;Max_cycle;Signal;HPM_P1;HPM_P2
2023/12/10 00:01:17;;;;;;;6.10;2.20;;;15.10;98.10;;;;;;4994591;28;20193;-7
2023/12/10 00:03:43;;;;;;;5.20;1.90;;;15.10;98.20;;;;;;4983617;28;20209;-7
2023/12/10 00:06:09;;;;;;;5.37;1.97;;;15.10;98.10;;;;;;4998129;28;20203;-8
2023/12/10 00:08:34;;;;;;;7.43;2.40;;;15.10;98.10;;;;;;4995038;28;20264;-9
2023/12/10 00:11:00;;;;;;;6.47;2.07;;;15.00;98.10;;;;;;4995828;28;20272;-8
2023/12/10 00:13:26;;;;;;;5.00;2.23;;;15.00;98.20;;;;;;4977386;28;20511;-9
2023/12/10 00:15:52;;;;;;;4.60;1.90;;;15.00;98.10;;;;;;4994502;28;20181;-9
2023/12/10 00:18:18;;;;;;;5.03;2.10;;;15.00;98.20;;;;;;4977342;28;20177;-9
2023/12/10 00:20:44;;;;;;;4.50;1.70;;;15.00;98.20;;;;;;4977373;28;20544;-9
2023/12/10 00:23:11;;;;;;;4.70;1.80;;;15.00;98.20;;;;;;4976687;28;20702;-9
2023/12/10 00:25:42;;;;;;;3.83;1.80;;;15.00;98.10;;;;;;4994178;28;20515;-9
2023/12/10 00:28:07;;;;;;;4.87;1.90;;;15.00;98.10;;;;;;4993921;28;20294;-9
2023/12/10 00:30:34;;;;;;;5.47;2.10;;;15.00;98.10;;;;;;4977915;28;20192;-9
2023/12/10 00:33:01;;;;;;;3.90;1.90;;;15.00;98.10;;;;;;4994552;28;20530;-9
2023/12/10 00:35:27;;;;;;;4.30;2.00;;;15.00;98.10;;;;;;4995387;28;20173;-9
2023/12/10 00:37:53;;;;;;;5.80;2.13;;;15.00;98.10;;;;;;4995273;28;20181;-9
2023/12/10 00:40:18;;;;;;;3.47;1.87;;;15.00;98.10;;;;;;4995889;28;20304;-9
2023/12/10 00:42:44;;;;;;;5.90;2.00;;;15.00;98.10;;;;;;4995579;28;20277;-9
2023/12/10 00:45:10;;;;;;;4.37;1.80;;;15.00;98.00;;;;;;4978547;28;20199;-9
2023/12/10 00:47:37;;;;;;;5.50;2.03;;;15.10;98.00;;;;;;4994914;28;20551;-9
2023/12/10 00:50:03;;;;;;;5.07;2.23;;;15.10;98.00;;;;;;4977851;28;20178;-9
2023/12/10 00:52:30;;;;;;;5.60;2.00;;;15.00;98.00;;;;;;4979058;28;20208;-9
2023/12/10 00:54:56;;;;;;;4.13;1.80;;;15.00;97.90;;;;;;4994971;28;20179;-9
2023/12/10 00:57:21;;;;;;;4.23;1.80;;;15.00;97.90;;;;;;4995819;28;20182;-9
2023/12/10 00:59:47;;;;;;;3.00;1.70;;;15.10;97.90;;;;;;4994698;28;20503;-9
2023/12/10 01:02:13;;;;;;;4.67;1.93;;;15.00;97.90;;;;;;4994256;28;20192;-9
2023/12/10 01:04:38;;;;;;;4.33;1.70;;;15.00;97.80;;;;;;4993404;28;20404;-9
2023/12/10 01:07:04;;;;;;;4.47;1.90;;;15.10;97.80;;;;;;4976338;28;20255;-7
2023/12/10 01:09:30;;;;;;;4.43;1.80;;;15.10;97.80;;;;;;4976492;28;20600;-7
2023/12/10 01:11:56;;;;;;;6.83;2.00;;;15.10;97.80;;;;;;4976324;28;20191;-7
2023/12/10 01:14:22;;;;;;;3.33;1.73;;;15.10;97.80;;;;;;4992845;28;20372;-7
2023/12/10 01:16:48;;;;;;;5.73;2.03;;;15.00;97.70;;;;;;4978644;28;20180;-7
2023/12/10 01:19:14;;;;;;;4.93;2.20;;;15.00;97.70;;;;;;4995044;28;20200;-7
2023/12/10 01:21:40;;;;;;;6.40;2.30;;;15.00;97.70;;;;;;4993422;28;20234;-7
2023/12/10 01:24:07;;;;;;;5.27;1.87;;;15.00;97.70;;;;;;4975771;28;20601;-7
2023/12/10 01:26:33;;;;;;;5.53;2.10;;;15.10;97.70;;;;;;4976784;28;20211;-7
2023/12/10 01:28:59;;;;;;;4.80;1.90;;;15.10;97.70;;;;;;4977026;28;20206;-7
2023/12/10 01:31:26;;;;;;;4.63;2.07;;;15.00;97.60;;;;;;4976683;28;20483;-7
2023/12/10 01:33:52;;;;;;;6.10;1.83;;;15.00;97.60;;;;;;4993824;28;20670;-7
2023/12/10 01:36:22;;;;;;;7.57;2.00;;;15.00;97.60;;;;;;4993794;28;20263;-7
2023/12/10 01:38:48;;;;;;;4.07;1.80;;;15.00;97.60;;;;;;4994279;28;20743;-7
2023/12/10 01:41:14;;;;;;;4.37;2.17;;;15.00;97.60;;;;;;4991154;28;20174;-7
2023/12/10 01:43:41;;;;;;;4.70;2.20;;;15.00;97.60;;;;;;4974391;28;20210;-7
2023/12/10 01:46:07;;;;;;;4.47;2.03;;;15.10;97.70;;;;;;4974664;28;20606;-7
2023/12/10 01:48:33;;;;;;;6.17;2.23;;;15.00;97.60;;;;;;4992741;28;20692;-8
2023/12/10 01:50:59;;;;;;;4.27;1.90;;;15.00;97.60;;;;;;4991235;28;20630;-7
2023/12/10 01:53:25;;;;;;;4.83;2.17;;;15.00;97.60;;;;;;4993329;28;20174;-7
2023/12/10 01:55:51;;;;;;;4.13;1.87;;;15.00;97.60;;;;;;4993475;28;20582;-7
2023/12/10 01:58:17;;;;;;;5.47;2.17;;;15.00;97.60;;;;;;4976656;28;20178;-7
2023/12/10 02:00:44;;;;;;;4.87;2.00;;;15.00;97.50;;;;;;4975934;28;20214;-7
2023/12/10 02:03:10;;;;;;;3.73;1.87;;;15.00;97.60;;;;;;4975626;28;20216;-7
2023/12/10 02:05:36;;;;;;;5.13;2.10;;;15.00;97.60;;;;;;4977665;28;20277;-7
2023/12/10 02:08:02;;;;;;;5.70;2.47;;;15.00;97.60;;;;;;4993318;28;20287;-7
2023/12/10 02:10:28;;;;;;;5.63;2.10;;;15.00;97.60;;;;;;4977665;28;20552;-7
2023/12/10 02:12:54;;;;;;;5.63;2.00;;;15.00;97.60;;;;;;4992796;28;20167;-7
2023/12/10 02:15:21;;;;;;;5.17;2.13;;;15.00;97.60;;;;;;4974398;28;20179;-7
2023/12/10 02:17:49;;;;;;;4.37;1.90;;;15.00;97.60;;;;;;4975887;28;20181;-7
2023/12/10 02:20:16;;;;;;;7.30;2.50;;;15.00;97.60;;;;;;4974781;28;20441;-7
2023/12/10 02:22:52;;;;;;;5.03;2.00;;;15.00;97.60;;;;;;4973282;28;20175;-7
2023/12/10 02:25:27;;;;;;;5.77;2.03;;;15.00;97.60;;;;;;4975072;28;20174;-7
2023/12/10 02:27:53;;;;;;;5.93;2.17;;;15.00;97.50;;;;;;4991218;28;20338;-7
2023/12/10 02:30:19;;;;;;;4.33;2.00;;;15.00;97.50;;;;;;4992605;28;20270;-7
2023/12/10 02:32:45;;;;;;;5.23;1.90;;;15.00;97.50;;;;;;4975779;28;20187;-7
2023/12/10 02:35:11;;;;;;;5.67;2.40;;;15.00;97.50;;;;;;4992518;28;20190;-7
2023/12/10 02:37:37;;;;;;;4.80;1.90;;;15.00;97.50;;;;;;4991337;28;20174;-7
2023/12/10 02:40:03;;;;;;;5.40;2.23;;;15.00;97.50;;;;;;4990977;28;20171;-7
2023/12/10 02:42:29;;;;;;;5.30;2.07;;;15.00;97.40;;;;;;4974719;28;20274;-8
2023/12/10 02:44:55;;;;;;;7.13;2.10;;;15.00;97.50;;;;;;4975148;28;20318;-7
2023/12/10 02:47:20;;;;;;;6.37;2.27;;;15.00;97.40;;;;;;4993725;28;20182;-7
2023/12/10 02:49:46;;;;;;;5.43;1.93;;;15.00;97.40;;;;;;4977833;28;20178;-7
2023/12/10 02:52:12;;;;;;;5.07;1.97;;;15.00;97.40;;;;;;4977335;28;20205;-7
2023/12/10 02:54:38;;;;;;;4.60;1.97;;;15.00;97.40;;;;;;4994482;28;20178;-7
2023/12/10 02:57:05;;;;;;;5.13;1.97;;;15.00;97.40;;;;;;4994833;28;20178;-7
2023/12/10 02:59:30;;;;;;;5.47;2.20;;;15.00;97.30;;;;;;4993089;28;20539;-7
2023/12/10 03:01:56;;;;;;;4.23;2.00;;;15.00;97.30;;;;;;4993690;28;20199;-7
2023/12/10 03:04:22;;;;;;;5.17;2.00;;;15.00;97.30;;;;;;4992044;28;20216;-7
2023/12/10 03:06:48;;;;;;;6.33;2.10;;;15.00;97.20;;;;;;4976036;28;20183;-7
2023/12/10 03:09:14;;;;;;;4.30;1.80;;;15.00;97.20;;;;;;4974668;28;20177;-7
2023/12/10 03:11:39;;;;;;;3.77;1.83;;;15.00;97.30;;;;;;4976692;28;20437;-7
2023/12/10 03:14:05;;;;;;;4.63;1.80;;;15.00;97.20;;;;;;4976211;28;20180;-7
2023/12/10 03:16:31;;;;;;;5.67;1.87;;;15.00;97.20;;;;;;4993384;28;20535;-7
2023/12/10 03:18:57;;;;;;;5.20;1.90;;;14.90;97.20;;;;;;4993912;28;20181;-7
2023/12/10 03:21:22;;;;;;;5.77;1.93;;;15.00;97.20;;;;;;4995724;28;20484;-7
2023/12/10 03:23:48;;;;;;;5.30;2.10;;;15.00;97.20;;;;;;4994013;28;20315;-7
2023/12/10 03:26:14;;;;;;;5.50;1.97;;;15.00;97.20;;;;;;4975980;28;20191;-7
2023/12/10 03:28:41;;;;;;;4.70;1.97;;;15.00;97.20;;;;;;4977416;28;20214;-7
2023/12/10 03:31:07;;;;;;;4.47;1.60;;;15.00;97.20;;;;;;4994981;28;20244;-7
2023/12/10 03:33:34;;;;;;;4.50;1.73;;;15.00;97.10;;;;;;4994481;28;20249;-7
2023/12/10 03:36:00;;;;;;;3.17;1.80;;;15.00;97.10;;;;;;4994606;28;20307;-7
2023/12/10 03:38:26;;;;;;;4.13;1.80;;;15.00;97.10;;;;;;4994779;28;20181;-7
2023/12/10 03:40:52;;;;;;;4.77;1.93;;;14.90;97.10;;;;;;4995181;28;20180;-8
2023/12/10 03:43:18;;;;;;;3.53;1.77;;;15.00;97.40;;;;;;4994437;28;20222;-7
2023/12/10 03:45:44;;;;;;;4.83;1.80;;;14.90;97.10;;;;;;4993461;28;20178;-7
2023/12/10 03:48:09;;;;;;;5.13;2.20;;;14.90;97.10;;;;;;4993100;28;20528;-7
2023/12/10 03:50:35;;;;;;;5.53;2.07;;;14.90;97.10;;;;;;4997421;28;20222;-7
2023/12/10 03:53:01;;;;;;;4.23;1.80;;;14.90;97.00;;;;;;4997177;28;20490;-7
2023/12/10 03:55:27;;;;;;;3.90;1.60;;;14.90;97.00;;;;;;4997544;28;20171;-7
2023/12/10 03:57:52;;;;;;;7.23;1.70;;;14.90;97.00;;;;;;4996826;28;20191;-7
2023/12/10 04:00:19;;;;;;;4.67;1.77;;;14.90;97.00;;;;;;4977208;28;20260;-7
2023/12/10 04:02:44;;;;;;;5.33;1.70;;;14.90;97.20;;;;;;4978756;28;20175;-7
2023/12/10 04:05:11;;;;;;;4.00;1.77;;;14.90;96.90;;;;;;4996484;28;20240;-7
2023/12/10 04:07:39;;;;;;;5.47;2.13;;;15.00;97.00;;;;;;4979004;28;20197;-7
2023/12/10 04:10:08;;;;;;;4.13;1.70;;;14.90;96.90;;;;;;4978194;28;20183;-7
2023/12/10 04:12:34;;;;;;;5.53;2.03;;;14.90;96.90;;;;;;4993055;28;20186;-7
2023/12/10 04:14:59;;;;;;;3.73;1.70;;;14.90;96.90;;;;;;4994991;28;20182;-7
2023/12/10 04:17:25;;;;;;;3.83;1.70;;;14.90;96.90;;;;;;4978296;28;20182;-7
2023/12/10 04:19:50;;;;;;;3.77;1.90;;;14.90;96.90;;;;;;4977896;28;20464;-7
2023/12/10 04:22:17;;;;;;;3.67;1.97;;;14.90;96.90;;;;;;4994632;28;20194;-7
2023/12/10 04:24:42;;;;;;;4.77;1.80;;;14.90;96.90;;;;;;4978782;28;20275;-7
2023/12/10 04:27:08;;;;;;;3.57;1.70;;;14.90;96.90;;;;;;4996005;28;20179;-7
2023/12/10 04:29:34;;;;;;;5.17;1.87;;;14.90;96.90;;;;;;4995783;28;20263;-8
2023/12/10 04:32:00;;;;;;;3.47;1.40;;;14.90;96.90;;;;;;4978795;28;20521;-8
2023/12/10 04:34:25;;;;;;;3.63;1.70;;;14.90;96.90;;;;;;4977899;28;20186;-9
2023/12/10 04:36:51;;;;;;;4.50;1.57;;;14.90;96.90;;;;;;4978092;28;20182;-9
2023/12/10 04:39:18;;;;;;;3.07;1.40;;;14.90;96.90;;;;;;4996033;28;20184;-9
2023/12/10 04:41:43;;;;;;;5.57;1.63;;;14.90;96.90;;;;;;4978033;28;20189;-9
2023/12/10 04:44:09;;;;;;;4.73;1.90;;;14.90;96.90;;;;;;4978589;28;20220;-9
2023/12/10 04:46:35;;;;;;;4.00;1.90;;;14.80;96.80;;;;;;4995175;28;20176;-9
2023/12/10 04:49:01;;;;;;;3.87;1.70;;;14.90;96.90;;;;;;4994916;28;20211;-9
2023/12/10 04:51:27;;;;;;;3.67;1.70;;;14.80;96.80;;;;;;4996964;28;20177;-9
2023/12/10 04:53:53;;;;;;;4.73;1.77;;;14.80;96.80;;;;;;4978857;28;20179;-9
2023/12/10 04:56:19;;;;;;;3.30;1.50;;;14.80;96.80;;;;;;4993820;28;20486;-9
2023/12/10 04:58:44;;;;;;;4.90;1.90;;;14.80;96.80;;;;;;4995433;28;20265;-9
2023/12/10 05:01:10;;;;;;;3.80;1.73;;;14.80;96.80;;;;;;4978928;28;20553;-9
2023/12/10 05:03:36;;;;;;;4.73;2.03;;;14.80;97.00;;;;;;4979498;28;20674;-9
2023/12/10 05:06:02;;;;;;;5.57;1.80;;;14.80;96.80;;;;;;4995603;28;20208;-9
2023/12/10 05:08:27;;;;;;;4.77;1.60;;;14.80;96.80;;;;;;4979206;28;20199;-9
2023/12/10 05:10:53;;;;;;;3.80;1.77;;;14.80;96.80;;;;;;4997849;28;20171;-9
2023/12/10 05:13:19;;;;;;;4.27;1.60;;;14.80;96.80;;;;;;4995540;28;20349;-9
2023/12/10 05:15:45;;;;;;;4.77;1.50;;;14.80;96.80;;;;;;4996578;28;20192;-9
2023/12/10 05:18:10;;;;;;;2.80;1.40;;;14.80;96.80;;;;;;4978227;28;20244;-9
2023/12/10 05:20:36;;;;;;;3.50;1.73;;;14.80;96.80;;;;;;4995181;28;20220;-9
2023/12/10 05:23:02;;;;;;;3.87;1.43;;;14.80;96.80;;;;;;4995895;28;20468;-9
2023/12/10 05:25:28;;;;;;;5.33;1.70;;;14.80;96.70;;;;;;4978093;28;20181;-9
2023/12/10 05:27:55;;;;;;;4.13;1.80;;;14.80;96.80;;;;;;4995267;28;20177;-9
2023/12/10 05:30:21;;;;;;;4.13;1.60;;;14.80;96.70;;;;;;4995810;28;20195;-9
2023/12/10 05:32:47;;;;;;;5.13;1.90;;;14.80;96.70;;;;;;4994140;28;20189;-9
2023/12/10 05:35:12;;;;;;;5.63;1.70;;;14.80;96.70;;;;;;4977538;28;20182;-9
2023/12/10 05:37:38;;;;;;;5.33;1.93;;;14.80;96.70;;;;;;4977169;28;20707;-9
2023/12/10 05:40:05;;;;;;;4.40;1.83;;;14.80;96.70;;;;;;4994178;28;20186;-9
2023/12/10 05:42:30;;;;;;;3.63;1.70;;;14.80;96.70;;;;;;4993453;28;20203;-9
2023/12/10 05:44:57;;;;;;;3.37;1.70;;;14.80;96.70;;;;;;4992546;28;20303;-25
2023/12/10 05:47:22;;;;;;;3.57;1.70;;;14.80;96.70;;;;;;4993873;28;20173;-9
2023/12/10 05:49:48;;;;;;;4.37;1.80;;;14.80;96.70;;;;;;4976956;28;20208;-9
2023/12/10 05:52:14;;;;;;;4.43;1.80;;;14.80;96.60;;;;;;4993488;28;20577;-9
2023/12/10 05:54:40;;;;;;;3.73;1.50;;;14.80;96.60;;;;;;4992612;28;20474;-9
2023/12/10 05:57:05;;;;;;;3.00;1.57;;;14.80;96.70;;;;;;4976763;28;20183;-9
2023/12/10 05:59:31;;;;;;;4.07;1.50;;;14.80;96.70;;;;;;4993587;28;20264;-9
2023/12/10 06:01:57;;;;;;;4.40;1.67;;;14.80;96.60;;;;;;4993544;28;20175;-9
2023/12/10 06:04:23;;;;;;;4.97;1.63;;;14.80;96.60;;;;;;4976495;28;20214;-9
2023/12/10 06:06:49;;;;;;;3.43;1.53;;;14.80;96.60;;;;;;4977167;28;20460;-9
2023/12/10 06:09:15;;;;;;;3.37;1.60;;;14.80;96.60;;;;;;4978144;28;20239;-9
2023/12/10 06:11:42;;;;;;;3.83;1.47;;;14.70;96.60;;;;;;4977505;28;20278;-9
2023/12/10 06:14:07;;;;;;;3.93;1.70;;;14.80;96.60;;;;;;4995374;28;20219;-9
2023/12/10 06:16:34;;;;;;;5.13;1.83;;;14.80;96.60;;;;;;4995455;28;20214;-9
2023/12/10 06:19:00;;;;;;;3.27;1.63;;;14.80;96.60;;;;;;4995891;28;20171;-9
2023/12/10 06:21:26;;;;;;;3.53;1.70;;;14.80;96.50;;;;;;4977181;28;20258;-9
2023/12/10 06:23:52;;;;;;;5.03;2.00;;;14.80;96.50;;;;;;4979922;28;20218;-9
2023/12/10 06:26:18;;;;;;;4.10;1.33;;;14.80;96.60;;;;;;4998224;28;20190;-9
2023/12/10 06:28:44;;;;;;;5.40;1.80;;;14.80;96.50;;;;;;4973712;28;20220;-9
2023/12/10 06:31:10;;;;;;;4.43;1.53;;;14.80;96.40;;;;;;4978963;28;20186;-9
2023/12/10 06:33:36;;;;;;;6.97;1.57;;;14.80;96.30;;;;;;4962140;28;20185;-9
2023/12/10 06:36:02;;;;;;;5.13;2.00;;;14.80;96.30;;;;;;4962325;28;20185;-9
2023/12/10 06:38:28;;;;;;;4.53;1.80;;;14.90;96.20;;;;;;4962183;28;20607;-9
2023/12/10 06:40:53;;;;;;;4.90;1.50;;;14.90;96.20;;;;;;4982391;28;20755;-9
2023/12/10 06:43:28;;;;;;;3.67;1.53;;;14.90;96.10;;;;;;4997736;28;20630;-9
2023/12/10 06:45:58;;;;;;;5.67;2.00;;;14.90;96.00;;;;;;4998364;28;20173;-9
2023/12/10 06:48:24;;;;;;;6.60;2.10;;;15.00;95.90;;;;;;4997769;28;20176;-9
2023/12/10 06:50:49;;;;;;;4.20;1.70;;;14.90;95.90;;;;;;4995625;28;20229;-9
2023/12/10 06:53:15;;;;;;;3.43;1.47;;;14.90;95.90;;;;;;4980725;28;20199;-9
2023/12/10 06:55:41;;;;;;;5.30;1.70;;;15.00;95.90;;;;;;4997738;28;20430;-8
2023/12/10 06:58:06;;;;;;;2.90;1.20;;;14.90;95.80;;;;;;4998158;28;20218;-8
2023/12/10 07:00:38;;;;;;;5.00;1.80;;;14.90;95.90;;;;;;4979631;28;20597;-8
2023/12/10 07:03:04;;;;;;;3.37;1.60;;;14.90;95.90;;;;;;4996976;28;20211;-8
2023/12/10 07:05:30;;;;;;;5.87;1.93;;;14.80;96.00;;;;;;4981595;28;20179;-8
2023/12/10 07:07:55;;;;;;;3.93;1.67;;;14.80;96.00;;;;;;4980750;28;20193;-8
2023/12/10 07:10:26;;;;;;;3.00;1.33;;;14.80;96.00;;;;;;4967417;28;20208;-8
2023/12/10 07:12:54;;;;;;;4.70;1.77;;;14.80;95.90;;;;;;4964328;28;20181;-8
2023/12/10 07:15:20;;;;;;;3.00;1.63;;;14.80;95.90;;;;;;4975017;28;20585;-8
2023/12/10 07:17:46;;;;;;;4.00;1.67;;;14.80;95.80;;;;;;4955779;28;20187;-8
2023/12/10 07:20:20;;;;;;;3.53;1.70;;;14.80;95.80;;;;;;4975378;28;20175;-8
2023/12/10 07:22:46;;;;;;;5.37;1.70;;;14.80;95.80;;;;;;4962046;28;20339;-8
2023/12/10 07:25:11;;;;;;;3.70;1.50;;;14.70;95.80;;;;;;4989664;28;20599;-8
2023/12/10 07:27:37;;;;;;;5.63;1.77;;;14.70;95.80;;;;;;4982346;28;20239;-8
2023/12/10 07:30:04;;;;;;;4.23;1.70;;;14.70;95.90;;;;;;4981283;28;20178;-8
2023/12/10 07:32:29;;;;;;;3.50;1.53;;;14.70;95.90;;;;;;4964515;28;20258;-8
2023/12/10 07:34:56;;;;;;;4.33;1.50;;;14.70;96.00;;;;;;4963927;28;20276;-8
2023/12/10 07:37:21;;;;;;;5.73;1.77;;;14.70;95.90;;;;;;4980978;28;20193;-8
2023/12/10 07:40:07;;;;;;;4.13;1.57;;;14.70;95.90;;;;;;4984349;28;20181;-8
2023/12/10 07:42:33;;;;;;;3.80;1.50;;;14.70;96.00;;;;;;4996026;28;20259;-8
2023/12/10 07:44:58;;;;;;;3.40;1.50;;;14.70;96.00;;;;;;4995195;28;20419;-8
2023/12/10 07:47:24;;;;;;;5.83;1.50;;;14.70;96.00;;;;;;4995426;28;20176;-8
2023/12/10 07:49:50;;;;;;;3.17;1.47;;;14.70;95.90;;;;;;4995943;28;20175;-8
2023/12/10 07:52:16;;;;;;;4.23;1.47;;;14.80;95.80;;;;;;4994690;28;20229;-8
2023/12/10 07:54:41;;;;;;;4.13;1.60;;;14.80;95.70;;;;;;4994444;28;20542;-8
2023/12/10 07:57:07;;;;;;;4.30;1.70;;;14.80;95.60;;;;;;4994017;28;20258;-8
2023/12/10 07:59:33;;;;;;;3.63;1.60;;;14.90;95.60;;;;;;4994875;28;20189;-8
2023/12/10 08:01:58;;;;;;;4.73;1.70;;;14.90;95.50;;;;;;4977954;28;20208;-8
2023/12/10 08:04:25;;;;;;;4.40;1.63;;;14.90;95.40;;;;;;4994491;28;20216;-8
2023/12/10 08:06:51;;;;;;;3.80;1.73;;;15.00;95.20;;;;;;4989602;28;20224;-8
2023/12/10 08:09:17;;;;;;;5.27;1.40;;;15.00;95.10;;;;;;4964764;28;20186;-8
2023/12/10 08:11:43;;;;;;;5.10;1.53;;;15.10;94.90;;;;;;4981636;28;20694;-8
2023/12/10 08:14:09;;;;;;;4.47;1.53;;;15.20;94.60;;;;;;4963471;28;20205;-9
2023/12/10 08:16:35;;;;;;;3.43;1.30;;;15.30;94.20;;;;;;4980370;28;20184;-9
2023/12/10 08:19:02;;;;;;;2.30;1.20;;;15.30;94.00;;;;;;4980429;28;20677;-9
2023/12/10 08:21:28;;;;;;;3.40;1.60;;;15.30;94.00;;;;;;4981448;28;20220;-9
2023/12/10 08:23:54;;;;;;;3.23;1.50;;;15.30;94.00;;;;;;4977839;28;20215;-9
2023/12/10 08:26:21;;;;;;;3.07;1.30;;;15.20;94.10;;;;;;4993991;28;20180;-9
2023/12/10 08:28:46;;;;;;;4.03;1.60;;;15.20;94.20;;;;;;4975553;28;20235;-9
2023/12/10 08:31:13;;;;;;;3.37;1.57;;;15.10;94.40;;;;;;4985252;28;20177;-9
2023/12/10 08:33:39;;;;;;;4.00;1.70;;;15.00;94.60;;;;;;4979017;28;20587;-9
2023/12/10 08:36:05;;;;;;;4.07;1.50;;;14.90;94.70;;;;;;4962214;28;20181;-9
2023/12/10 08:38:31;;;;;;;2.43;1.20;;;14.90;94.80;;;;;;4980008;28;20202;-9
2023/12/10 08:40:57;;;;;;;3.47;1.60;;;14.90;94.90;;;;;;4979783;28;20568;-9
2023/12/10 08:43:32;;;;;;;4.23;1.80;;;14.80;95.00;;;;;;4979699;28;20206;-9
2023/12/10 08:45:58;;;;;;;3.90;1.40;;;14.80;95.00;;;;;;4963071;28;20185;-9
2023/12/10 08:48:24;;;;;;;3.77;1.80;;;14.80;94.90;;;;;;4968900;28;20175;-9
2023/12/10 08:50:50;;;;;;;5.00;1.50;;;14.80;95.00;;;;;;4992877;28;20171;-9
2023/12/10 08:53:33;;;;;;;6.03;1.70;;;14.80;95.00;;;;;;4979732;28;20181;-9
2023/12/10 08:55:58;;;;;;;3.33;1.30;;;14.80;95.00;;;;;;4979443;28;20188;-9
2023/12/10 08:58:25;;;;;;;2.80;1.37;;;14.70;95.10;;;;;;4962831;28;20264;-9
2023/12/10 09:00:51;;;;;;;4.10;1.73;;;14.70;95.20;;;;;;4962625;28;20279;-9
2023/12/10 09:03:17;;;;;;;4.90;1.73;;;14.70;95.30;;;;;;4956969;28;20303;-9
2023/12/10 09:05:42;;;;;;;4.37;1.20;;;14.70;95.30;;;;;;4939065;28;20174;-9
2023/12/10 09:08:08;;;;;;;3.87;1.50;;;14.70;95.30;;;;;;4972709;28;20191;-9
2023/12/10 09:10:34;;;;;;;3.80;1.57;;;14.70;95.30;;;;;;4971149;28;20264;-9
2023/12/10 09:13:01;;;;;;;3.97;1.50;;;14.80;95.20;;;;;;4971413;28;20212;-9
2023/12/10 09:15:26;;;;;;;3.27;1.50;;;14.80;95.10;;;;;;4971459;28;20175;-10
2023/12/10 09:17:52;;;;;;;4.43;1.70;;;14.80;95.00;;;;;;4970853;28;20379;-9
2023/12/10 09:20:18;;;;;;;4.73;1.60;;;14.80;94.90;;;;;;4971844;28;20171;-9
2023/12/10 09:22:44;;;;;;;3.30;1.40;;;14.80;94.80;;;;;;4953058;28;20180;-9
2023/12/10 09:25:10;;;;;;;4.43;1.93;;;14.90;94.80;;;;;;4953056;28;20492;-9
2023/12/10 09:27:35;;;;;;;3.77;1.40;;;14.90;94.80;;;;;;4969870;28;20183;-9
2023/12/10 09:30:02;;;;;;;3.63;1.47;;;14.90;94.70;;;;;;4970550;28;20186;-9
2023/12/10 09:32:29;;;;;;;2.57;1.57;;;15.00;94.70;;;;;;4972972;28;20170;-9
2023/12/10 09:34:55;;;;;;;4.47;1.70;;;15.00;94.50;;;;;;4969199;28;20188;-9
2023/12/10 09:37:20;;;;;;;6.20;1.70;;;15.10;94.30;;;;;;4970128;28;20588;-8
2023/12/10 09:39:46;;;;;;;5.73;1.50;;;15.20;94.20;;;;;;4970997;28;20537;-9
2023/12/10 09:42:12;;;;;;;3.23;1.43;;;15.30;94.00;;;;;;4953791;28;20201;-9
2023/12/10 09:44:39;;;;;;;3.93;1.60;;;15.30;94.00;;;;;;4954006;28;20203;-9
2023/12/10 09:47:10;;;;;;;5.80;1.57;;;15.20;94.00;;;;;;4970287;28;20171;-9
2023/12/10 09:49:38;;;;;;;3.60;1.53;;;15.20;94.10;;;;;;4972895;28;20178;-9
2023/12/10 09:52:08;;;;;;;3.07;1.43;;;15.20;94.30;;;;;;4972527;28;20171;-9
2023/12/10 09:54:37;;;;;;;4.17;1.70;;;15.20;94.40;;;;;;4970345;28;20417;-8
2023/12/10 09:57:03;;;;;;;4.97;1.90;;;15.10;94.50;;;;;;4952364;28;20456;-9
2023/12/10 09:59:29;;;;;;;3.90;1.37;;;15.00;94.80;;;;;;4970495;28;20186;-9
2023/12/10 10:01:55;;;;;;;4.37;1.40;;;15.00;94.90;;;;;;4970110;28;20204;-8
2023/12/10 10:04:20;;;;;;;5.60;1.80;;;14.90;95.00;;;;;;4952409;28;20200;-8
2023/12/10 10:06:46;;;;;;;3.50;1.40;;;14.90;95.20;;;;;;4970433;28;20194;-9
2023/12/10 10:09:12;;;;;;;4.03;1.70;;;14.90;95.20;;;;;;4953459;28;20177;-8
2023/12/10 10:11:39;;;;;;;10.20;1.63;;;14.90;95.30;;;;;;4968848;28;20275;-9
2023/12/10 10:14:04;;;;;;;9.07;1.87;;;14.90;95.50;;;;;;4951672;28;20558;-8
2023/12/10 10:16:35;;;;;;;6.13;1.77;;;14.80;95.80;;;;;;4968969;28;20257;-8
2023/12/10 10:19:02;;;;;;;3.37;1.57;;;14.80;95.80;;;;;;4971696;28;20188;-8
2023/12/10 10:21:30;;;;;;;5.07;1.57;;;14.80;96.00;;;;;;4953258;28;20235;-9
2023/12/10 10:23:56;;;;;;;6.23;1.60;;;14.80;96.00;;;;;;4971731;28;20594;-8
2023/12/10 10:26:22;;;;;;;6.60;1.83;;;14.80;95.90;;;;;;4970941;28;20178;-9
2023/12/10 10:28:49;;;;;;;3.40;1.60;;;14.80;96.00;;;;;;4951914;28;20180;-9
2023/12/10 10:31:16;;;;;;;11.53;2.20;;;14.80;96.10;;;;;;4952046;28;20172;-9
2023/12/10 10:33:44;;;;;;;4.73;1.70;;;14.80;96.10;;;;;;4967943;28;20198;-9
2023/12/10 10:36:10;;;;;;;6.17;1.70;;;14.80;96.10;;;;;;4968382;28;20203;-9
2023/12/10 10:38:36;;;;;;;5.00;1.90;;;14.80;96.10;;;;;;4969233;28;20188;-9
2023/12/10 10:41:02;;;;;;;5.43;1.70;;;14.80;96.00;;;;;;4952683;28;20185;-9
2023/12/10 10:43:28;;;;;;;4.27;1.87;;;14.80;96.20;;;;;;4949288;28;20455;-10
2023/12/10 10:45:56;;;;;;;5.50;1.70;;;14.90;96.00;;;;;;4953867;28;20246;-9
2023/12/10 10:48:27;;;;;;;4.33;1.70;;;14.90;96.10;;;;;;4951634;28;20173;-9
2023/12/10 10:50:55;;;;;;;5.27;1.90;;;14.90;96.10;;;;;;4964490;28;20171;-9
2023/12/10 10:53:21;;;;;;;6.40;2.00;;;15.00;96.10;;;;;;4992988;28;20206;-9
2023/12/10 10:55:48;;;;;;;6.77;2.00;;;15.00;96.10;;;;;;4976196;28;20178;-9
2023/12/10 10:58:28;;;;;;;5.07;1.90;;;15.00;95.90;;;;;;4974151;28;20172;-8
2023/12/10 11:00:57;;;;;;;8.17;2.10;;;15.00;96.10;;;;;;4994153;28;20559;-9
2023/12/10 11:03:27;;;;;;;7.43;1.97;;;15.00;96.00;;;;;;4993204;28;20238;-9
2023/12/10 11:06:00;;;;;;;4.80;1.80;;;15.00;96.00;;;;;;4994140;28;20551;-9
2023/12/10 11:08:27;;;;;;;4.53;1.83;;;15.00;96.00;;;;;;4975949;28;20185;-8
2023/12/10 11:11:00;;;;;;;7.07;1.83;;;15.00;96.00;;;;;;4975019;28;20361;-8
2023/12/10 11:13:45;;;;;;;7.50;1.90;;;15.00;96.00;;;;;;4993339;28;20217;-8
2023/12/10 11:16:11;;;;;;;7.13;1.90;;;15.00;96.20;;;;;;4993652;28;20172;-8
2023/12/10 11:18:59;;;;;;;7.17;2.23;;;15.00;96.20;;;;;;4992414;28;20244;-9
2023/12/10 11:21:25;;;;;;;9.33;2.10;;;15.10;96.40;;;;;;4992117;28;20217;-8
2023/12/10 11:23:51;;;;;;;6.83;2.20;;;15.10;96.30;;;;;;4992142;28;20237;-9
2023/12/10 11:26:17;;;;;;;6.97;2.00;;;15.10;96.40;;;;;;4991584;28;20166;-9
2023/12/10 11:28:43;;;;;;;7.83;2.53;;;15.10;96.40;;;;;;4990920;28;20177;-9
2023/12/10 11:31:10;;;;;;;5.97;2.20;;;15.10;96.30;;;;;;4990435;28;20176;-9
2023/12/10 11:33:41;;;;;;;9.33;2.37;;;15.10;96.40;;;;;;4992548;28;20170;-9
2023/12/10 11:36:10;;;;;;;8.60;2.60;;;15.10;96.50;;;;;;4975661;28;20184;-10
2023/12/10 11:38:36;;;;;;;8.40;2.33;;;15.10;96.70;;;;;;4975971;28;20176;-10
2023/12/10 11:41:03;;;;;;;8.53;2.70;;;15.10;96.60;;;;;;4991740;28;20173;-10
2023/12/10 11:43:29;;;;;;;9.13;2.57;;;15.10;96.60;;;;;;4991481;28;20202;-9
2023/12/10 11:45:56;;;;;;;7.90;2.70;;;15.10;96.60;;;;;;4994611;28;20194;-10
2023/12/10 11:48:22;;;;;;;5.80;2.40;;;15.10;96.40;;;;;;4982558;28;20170;-10
2023/12/10 11:50:49;;;;;;;7.47;2.37;;;15.10;96.40;;;;;;4982441;28;20175;-10
2023/12/10 11:53:17;;;;;;;7.57;2.97;;;15.10;96.30;;;;;;4982589;28;20275;-10
2023/12/10 11:55:44;;;;;;;6.03;2.70;;;15.10;96.30;;;;;;4982576;28;20184;-10
2023/12/10 11:58:42;;;;;;;6.67;2.70;;;15.10;96.20;;;;;;4982137;28;20273;-10
2023/12/10 12:01:08;;;;;;;8.40;2.70;;;15.10;96.20;;;;;;4996567;28;20183;-10
2023/12/10 12:03:34;;;;;;;7.23;2.87;;;15.10;96.10;;;;;;4981963;28;20210;-10
2023/12/10 12:06:00;;;;;;;10.10;2.83;;;15.10;96.10;;;;;;4981979;28;20171;-10
2023/12/10 12:08:28;;;;;;;9.30;2.67;;;15.10;96.10;;;;;;4998540;28;20225;-10
2023/12/10 12:10:55;;;;;;;7.40;2.90;;;15.10;96.10;;;;;;4999130;28;20249;-10
2023/12/10 12:13:21;;;;;;;8.93;3.30;;;15.10;96.00;;;;;;4998922;28;20168;-10
2023/12/10 12:15:47;;;;;;;6.67;2.73;;;15.10;96.00;;;;;;4998207;28;20234;-10
2023/12/10 12:18:14;;;;;;;8.60;3.00;;;15.00;96.00;;;;;;4999114;28;20261;-10
2023/12/10 12:20:40;;;;;;;10.03;2.83;;;15.00;96.00;;;;;;4982365;28;20168;-9
2023/12/10 12:23:05;;;;;;;6.53;2.50;;;15.00;96.00;;;;;;4982641;28;20190;-9
2023/12/10 12:25:34;;;;;;;9.73;2.67;;;15.00;96.00;;;;;;4999144;28;20180;-10
2023/12/10 12:28:06;;;;;;;7.87;2.60;;;15.10;95.90;;;;;;4983165;28;20155;-10
2023/12/10 12:30:33;;;;;;;6.57;2.70;;;15.10;95.70;;;;;;4982260;28;20555;-9
2023/12/10 12:32:59;;;;;;;6.23;2.53;;;15.10;95.60;;;;;;4982580;28;20171;-9
2023/12/10 12:35:26;;;;;;;7.27;2.77;;;15.20;95.50;;;;;;4980800;28;20237;-10
2023/12/10 12:37:53;;;;;;;5.63;2.57;;;15.20;95.40;;;;;;4998315;28;20162;-10
2023/12/10 12:40:20;;;;;;;6.40;2.33;;;15.20;95.30;;;;;;4982425;28;20176;-10
2023/12/10 12:42:48;;;;;;;6.03;2.80;;;15.20;95.20;;;;;;4982185;28;20236;-9
2023/12/10 12:45:18;;;;;;;5.23;2.13;;;15.20;95.20;;;;;;5023976;22;20524;-75
2023/12/10 12:47:48;;;;;;;7.77;2.60;;;15.20;95.20;;;;;;4999443;28;20215;-74
2023/12/10 12:50:14;;;;;;;7.07;2.80;;;15.20;95.20;;;;;;4998493;28;20177;-74
2023/12/10 12:52:40;;;;;;;6.20;2.50;;;15.20;95.20;;;;;;4995143;28;20207;-74